createdAt,value
2018-08-30T00:01:59.095Z,11.80
2018-08-30T00:04:27.387Z,11.60
2018-08-30T00:06:55.526Z,11.00
2018-08-30T00:09:23.686Z,10.63
2018-08-30T00:11:51.834Z,10.73
2018-08-30T00:14:20.040Z,10.57
2018-08-30T00:16:48.176Z,10.80
2018-08-30T00:19:16.278Z,11.63
2018-08-30T00:21:44.411Z,11.87
2018-08-30T00:24:12.535Z,12.50
2018-08-30T00:26:40.798Z,14.10
2018-08-30T00:29:08.946Z,15.63
2018-08-30T00:31:37.079Z,16.60
2018-08-30T00:34:05.201Z,16.57
2018-08-30T00:36:33.351Z,16.57
2018-08-30T00:39:01.474Z,18.00
2018-08-30T00:41:29.633Z,19.00
2018-08-30T00:43:57.719Z,21.07
2018-08-30T00:46:25.834Z,24.40
2018-08-30T00:48:53.999Z,26.77
2018-08-30T00:51:22.099Z,28.93
2018-08-30T00:53:50.228Z,31.13
2018-08-30T00:56:18.354Z,29.57
2018-08-30T00:58:46.478Z,33.57
2018-08-30T01:01:14.667Z,33.13
2018-08-30T01:03:42.983Z,35.07
2018-08-30T01:06:11.117Z,33.20
2018-08-30T01:08:39.249Z,32.03
2018-08-30T01:11:07.703Z,31.03
2018-08-30T01:13:35.832Z,30.57
2018-08-30T01:16:03.962Z,31.23
2018-08-30T01:18:32.157Z,29.40
2018-08-30T01:21:00.282Z,29.20
2018-08-30T01:23:28.457Z,31.67
2018-08-30T01:25:56.606Z,30.63
2018-08-30T01:28:24.717Z,28.73
2018-08-30T01:30:52.833Z,29.90
2018-08-30T01:33:20.982Z,30.87
2018-08-30T01:35:49.113Z,31.07
2018-08-30T01:38:17.233Z,30.43
2018-08-30T01:40:45.440Z,30.50
2018-08-30T01:43:13.535Z,33.33
2018-08-30T01:45:41.650Z,32.83
2018-08-30T01:48:09.809Z,32.47
2018-08-30T01:50:37.919Z,35.73
2018-08-30T01:53:06.065Z,35.03
2018-08-30T01:55:34.213Z,34.90
2018-08-30T01:58:02.393Z,36.17
2018-08-30T02:00:30.516Z,36.63
2018-08-30T02:02:58.642Z,34.87
2018-08-30T02:05:26.765Z,36.60
2018-08-30T02:07:54.893Z,37.00
2018-08-30T02:10:23.020Z,38.43
2018-08-30T02:12:51.169Z,39.00
2018-08-30T02:15:19.288Z,41.63
2018-08-30T02:17:47.426Z,41.30
2018-08-30T02:20:15.540Z,46.00
2018-08-30T02:22:43.681Z,41.53
2018-08-30T02:25:11.823Z,45.07
2018-08-30T02:27:39.958Z,45.97
2018-08-30T02:30:08.085Z,46.50
2018-08-30T02:32:36.225Z,43.93
2018-08-30T02:35:04.366Z,45.57
2018-08-30T02:37:32.508Z,42.83
2018-08-30T02:40:00.667Z,45.13
2018-08-30T02:42:28.826Z,45.20
2018-08-30T02:44:56.948Z,42.90
2018-08-30T02:47:25.073Z,48.13
2018-08-30T02:49:53.262Z,46.87
2018-08-30T02:52:21.439Z,49.07
2018-08-30T02:54:49.557Z,46.07
2018-08-30T02:57:17.706Z,50.63
2018-08-30T02:59:46.017Z,48.87
2018-08-30T03:02:14.145Z,46.17
2018-08-30T03:04:42.281Z,48.90
2018-08-30T03:07:10.657Z,49.93
2018-08-30T03:09:38.810Z,50.40
2018-08-30T03:12:06.931Z,45.77
2018-08-30T03:14:35.314Z,43.57
2018-08-30T03:17:03.468Z,45.80
2018-08-30T03:19:31.593Z,46.07
2018-08-30T03:21:59.727Z,47.23
2018-08-30T03:24:27.845Z,43.40
2018-08-30T03:26:55.973Z,45.67
2018-08-30T03:29:24.116Z,43.37
2018-08-30T03:31:52.238Z,42.77
2018-08-30T03:34:20.399Z,45.57
2018-08-30T03:36:48.556Z,45.63
2018-08-30T03:39:16.746Z,43.80
2018-08-30T03:41:44.907Z,41.30
2018-08-30T03:44:13.066Z,47.50
2018-08-30T03:46:41.193Z,45.17
2018-08-30T03:49:09.336Z,43.03
2018-08-30T03:51:37.469Z,42.63
2018-08-30T03:54:05.602Z,42.00
2018-08-30T03:56:33.741Z,42.10
2018-08-30T03:59:01.883Z,42.37
2018-08-30T04:01:30.018Z,41.13
2018-08-30T04:03:58.322Z,41.20
2018-08-30T04:06:26.466Z,45.40
2018-08-30T04:08:54.605Z,42.00
2018-08-30T04:11:22.744Z,38.97
2018-08-30T04:13:50.871Z,38.30
2018-08-30T04:16:18.981Z,40.43
2018-08-30T04:18:51.369Z,41.23
2018-08-30T04:21:19.605Z,39.37
2018-08-30T04:23:47.741Z,37.77
2018-08-30T04:26:15.858Z,38.47
2018-08-30T04:28:44.024Z,38.43
2018-08-30T04:31:12.149Z,39.20
2018-08-30T04:33:40.257Z,38.80
2018-08-30T04:36:08.394Z,41.43
2018-08-30T04:38:36.525Z,38.77
2018-08-30T04:41:04.652Z,39.87
2018-08-30T04:43:32.782Z,41.70
2018-08-30T04:46:00.914Z,41.50
2018-08-30T04:48:29.054Z,41.60
2018-08-30T04:50:57.210Z,39.00
2018-08-30T04:53:25.335Z,39.40
2018-08-30T04:55:53.466Z,38.77
2018-08-30T04:58:21.604Z,44.23
2018-08-30T05:00:49.757Z,41.07
2018-08-30T05:03:17.904Z,41.37
2018-08-30T05:05:46.050Z,38.20
2018-08-30T05:08:14.204Z,38.53
2018-08-30T05:10:42.333Z,41.57
2018-08-30T05:13:10.457Z,38.27
2018-08-30T05:15:38.593Z,40.20
2018-08-30T05:18:06.741Z,38.80
2018-08-30T05:20:34.981Z,39.43
2018-08-30T05:23:03.134Z,40.70
2018-08-30T05:25:32.345Z,38.40
2018-08-30T05:28:00.472Z,38.17
2018-08-30T05:30:28.618Z,38.43
2018-08-30T05:32:56.897Z,37.40
2018-08-30T05:35:25.035Z,39.23
2018-08-30T05:37:53.173Z,39.00
2018-08-30T05:40:21.470Z,36.80
2018-08-30T05:42:49.763Z,37.93
2018-08-30T05:45:17.933Z,37.43
2018-08-30T05:47:46.057Z,37.37
2018-08-30T05:50:14.193Z,38.30
2018-08-30T05:52:42.318Z,37.50
2018-08-30T05:55:10.494Z,36.23
2018-08-30T05:57:38.598Z,35.83
2018-08-30T06:00:06.733Z,34.53
2018-08-30T06:02:34.874Z,35.40
2018-08-30T06:05:03.102Z,35.23
2018-08-30T06:07:31.323Z,34.77
2018-08-30T06:09:59.457Z,35.07
2018-08-30T06:12:27.574Z,34.57
2018-08-30T06:14:56.678Z,32.50
2018-08-30T06:17:25.014Z,32.90
2018-08-30T06:19:53.358Z,32.80
2018-08-30T06:22:21.781Z,32.63
2018-08-30T06:24:49.922Z,32.87
2018-08-30T06:27:18.044Z,31.33
2018-08-30T06:29:46.178Z,29.90
2018-08-30T06:32:14.313Z,30.97
2018-08-30T06:34:42.475Z,31.97
2018-08-30T06:37:10.570Z,29.43
2018-08-30T06:39:38.705Z,30.73
2018-08-30T06:42:07.061Z,28.87
2018-08-30T06:44:35.215Z,28.80
2018-08-30T06:47:03.368Z,27.73
2018-08-30T06:49:31.485Z,28.33
2018-08-30T06:51:59.624Z,27.10
2018-08-30T06:54:27.890Z,28.10
2018-08-30T06:56:56.030Z,27.93
2018-08-30T06:59:24.146Z,26.10
2018-08-30T07:01:52.292Z,28.00
2018-08-30T07:04:20.462Z,27.30
2018-08-30T07:06:48.549Z,27.60
2018-08-30T07:09:16.693Z,27.47
2018-08-30T07:11:44.822Z,26.30
2018-08-30T07:14:12.953Z,26.67
2018-08-30T07:16:41.101Z,25.70
2018-08-30T07:19:09.233Z,26.93
2018-08-30T07:21:37.357Z,26.37
2018-08-30T07:24:05.664Z,27.67
2018-08-30T07:26:33.841Z,28.40
2018-08-30T07:29:01.937Z,27.73
2018-08-30T07:31:30.078Z,28.03
2018-08-30T07:33:58.217Z,27.57
2018-08-30T07:36:26.344Z,28.10
2018-08-30T07:38:54.482Z,29.60
2018-08-30T07:41:22.658Z,28.87
2018-08-30T07:43:50.789Z,28.50
2018-08-30T07:46:18.913Z,28.37
2018-08-30T07:48:47.046Z,27.67
2018-08-30T07:51:15.176Z,28.30
2018-08-30T07:53:43.317Z,28.10
2018-08-30T07:56:11.471Z,31.67
2018-08-30T07:58:39.589Z,27.03
2018-08-30T08:01:07.726Z,27.10
2018-08-30T08:03:35.839Z,28.97
2018-08-30T08:06:04.026Z,27.67
2018-08-30T08:08:32.143Z,27.13
2018-08-30T08:11:00.265Z,28.00
2018-08-30T08:13:28.381Z,26.57
2018-08-30T08:15:56.502Z,28.07
2018-08-30T08:18:24.609Z,26.43
2018-08-30T08:20:52.757Z,28.10
2018-08-30T08:23:20.907Z,25.50
2018-08-30T08:25:49.018Z,24.70
2018-08-30T08:28:17.128Z,25.07
2018-08-30T08:30:45.266Z,25.73
2018-08-30T08:33:13.409Z,24.27
2018-08-30T08:35:41.567Z,25.90
2018-08-30T08:38:09.689Z,22.47
2018-08-30T08:40:37.920Z,21.03
2018-08-30T08:43:06.059Z,21.70
2018-08-30T08:45:34.181Z,19.60
2018-08-30T08:48:02.356Z,19.30
2018-08-30T08:50:30.465Z,20.20
2018-08-30T08:52:58.610Z,16.83
2018-08-30T08:55:26.780Z,15.87
2018-08-30T08:57:54.916Z,18.83
2018-08-30T09:00:23.049Z,18.17
2018-08-30T09:02:51.278Z,15.83
2018-08-30T09:05:19.390Z,13.33
2018-08-30T09:07:47.719Z,12.60
2018-08-30T09:10:15.814Z,15.43
2018-08-30T09:12:43.963Z,13.17
2018-08-30T09:15:12.098Z,13.87
2018-08-30T09:17:40.245Z,13.30
2018-08-30T09:20:08.538Z,12.90
2018-08-30T09:22:36.658Z,13.23
2018-08-30T09:25:04.895Z,14.87
2018-08-30T09:27:33.023Z,14.23
2018-08-30T09:30:01.186Z,12.87
2018-08-30T09:32:29.313Z,9.53
2018-08-30T09:34:57.490Z,12.43
2018-08-30T09:37:25.618Z,9.67
2018-08-30T09:39:53.751Z,13.30
2018-08-30T09:42:21.894Z,12.13
2018-08-30T09:44:50.014Z,12.40
2018-08-30T09:47:18.152Z,7.60
2018-08-30T09:49:46.404Z,8.23
2018-08-30T09:52:14.429Z,6.27
2018-08-30T09:54:42.537Z,8.30
2018-08-30T09:57:10.819Z,8.03
2018-08-30T09:59:38.813Z,6.10
2018-08-30T10:02:12.441Z,6.97
2018-08-30T10:04:40.578Z,8.37
2018-08-30T10:07:08.686Z,8.50
2018-08-30T10:09:37.114Z,4.60
2018-08-30T10:12:05.463Z,9.43
2018-08-30T10:14:33.605Z,5.60
2018-08-30T10:17:01.745Z,6.77
2018-08-30T10:19:29.918Z,6.83
2018-08-30T10:21:58.053Z,8.47
2018-08-30T10:24:26.247Z,6.80
2018-08-30T10:26:54.438Z,5.67
2018-08-30T10:29:22.587Z,7.67
2018-08-30T10:31:50.750Z,6.10
2018-08-30T10:34:18.857Z,6.43
2018-08-30T10:36:47.023Z,7.10
2018-08-30T10:39:15.187Z,9.20
2018-08-30T10:41:43.340Z,6.30
2018-08-30T10:44:11.524Z,9.10
2018-08-30T10:46:39.677Z,8.23
2018-08-30T10:49:07.866Z,6.07
2018-08-30T10:51:36.001Z,7.60
2018-08-30T10:54:04.134Z,9.47
2018-08-30T10:56:32.317Z,7.07
2018-08-30T10:59:00.480Z,6.13
2018-08-30T11:01:28.638Z,9.20
2018-08-30T11:03:56.862Z,6.70
2018-08-30T11:06:24.921Z,8.23
2018-08-30T11:08:53.067Z,6.20
2018-08-30T11:11:21.246Z,5.83
2018-08-30T11:13:49.430Z,8.07
2018-08-30T11:16:17.586Z,7.53
2018-08-30T11:18:45.743Z,10.10
2018-08-30T11:21:13.913Z,7.43
2018-08-30T11:23:42.066Z,6.47
2018-08-30T11:26:10.247Z,8.53
2018-08-30T11:28:38.409Z,5.97
2018-08-30T11:31:06.589Z,5.43
2018-08-30T11:33:34.729Z,6.10
2018-08-30T11:36:02.918Z,7.60
2018-08-30T11:38:31.090Z,7.73
2018-08-30T11:40:59.224Z,10.20
2018-08-30T11:43:27.475Z,8.50
2018-08-30T11:45:55.475Z,8.43
2018-08-30T11:48:23.650Z,6.77
2018-08-30T11:50:51.793Z,4.33
2018-08-30T11:53:19.966Z,3.90
2018-08-30T11:55:48.174Z,5.77
2018-08-30T11:58:16.313Z,5.60
2018-08-30T12:00:44.480Z,6.60
2018-08-30T12:03:12.782Z,7.70
2018-08-30T12:05:40.963Z,6.90
2018-08-30T12:08:09.225Z,7.80
2018-08-30T12:10:38.131Z,7.47
2018-08-30T12:13:06.363Z,7.57
2018-08-30T12:15:34.556Z,6.10
2018-08-30T12:18:03.374Z,4.13
2018-08-30T12:20:31.551Z,7.23
2018-08-30T12:22:59.786Z,8.83
2018-08-30T12:25:27.941Z,5.07
2018-08-30T12:27:56.121Z,6.30
2018-08-30T12:30:24.307Z,4.27
2018-08-30T12:32:52.484Z,7.43
2018-08-30T12:35:20.615Z,8.40
2018-08-30T12:37:48.712Z,6.43
2018-08-30T12:40:16.876Z,8.60
2018-08-30T12:42:45.129Z,6.70
2018-08-30T12:45:13.293Z,5.37
2018-08-30T12:47:41.473Z,7.03
2018-08-30T12:50:09.805Z,4.67
2018-08-30T12:52:37.963Z,7.90
2018-08-30T12:55:06.416Z,4.10
2018-08-30T12:57:34.707Z,6.63
2018-08-30T13:00:03.408Z,6.17
2018-08-30T13:02:31.602Z,9.67
2018-08-30T13:04:59.769Z,6.20
2018-08-30T13:07:28.880Z,11.03
2018-08-30T13:09:57.040Z,6.10
2018-08-30T13:12:25.359Z,5.83
2018-08-30T13:14:53.693Z,4.73
2018-08-30T13:17:21.776Z,7.27
2018-08-30T13:19:50.272Z,5.30
2018-08-30T13:22:18.280Z,6.37
2018-08-30T13:24:46.741Z,7.90
2018-08-30T13:27:14.844Z,17.10
2018-08-30T13:29:42.949Z,5.70
2018-08-30T13:32:11.128Z,10.00
2018-08-30T13:34:39.353Z,7.30
2018-08-30T13:37:10.368Z,3.93
2018-08-30T13:39:38.629Z,9.77
2018-08-30T13:42:07.000Z,8.50
2018-08-30T13:44:35.578Z,5.33
2018-08-30T13:47:03.965Z,6.00
2018-08-30T13:49:32.016Z,5.07
2018-08-30T13:52:00.505Z,4.23
2018-08-30T13:54:28.730Z,10.87
2018-08-30T13:56:56.914Z,6.13
2018-08-30T13:59:25.107Z,5.10
2018-08-30T14:01:53.286Z,6.00
2018-08-30T14:04:21.380Z,4.50
2018-08-30T14:06:49.539Z,6.83
2018-08-30T14:09:17.795Z,8.50
2018-08-30T14:11:52.776Z,4.60
2018-08-30T14:14:20.794Z,4.83
2018-08-30T14:16:48.518Z,5.60
2018-08-30T14:19:16.682Z,4.03
2018-08-30T14:21:44.822Z,7.60
2018-08-30T14:24:12.974Z,9.60
2018-08-30T14:26:41.208Z,7.90
2018-08-30T14:29:09.581Z,3.57
2018-08-30T14:31:37.754Z,6.83
2018-08-30T14:34:06.127Z,3.67
2018-08-30T14:36:34.324Z,4.57
2018-08-30T14:39:02.530Z,5.47
2018-08-30T14:41:30.704Z,6.57
2018-08-30T14:43:58.773Z,6.80
2018-08-30T14:46:26.956Z,5.63
2018-08-30T14:48:55.126Z,4.23
2018-08-30T14:51:23.291Z,4.43
2018-08-30T14:53:52.176Z,5.63
2018-08-30T14:56:19.595Z,5.73
2018-08-30T14:58:47.721Z,4.83
2018-08-30T15:01:15.908Z,4.93
2018-08-30T15:03:44.103Z,6.13
2018-08-30T15:06:12.224Z,4.20
2018-08-30T15:08:40.362Z,9.07
2018-08-30T15:11:08.610Z,4.73
2018-08-30T15:13:36.738Z,5.87
2018-08-30T15:16:04.963Z,7.03
2018-08-30T15:18:33.056Z,6.03
2018-08-30T15:21:01.279Z,7.13
2018-08-30T15:23:29.835Z,7.80
2018-08-30T15:25:57.689Z,4.47
2018-08-30T15:28:25.933Z,7.40
2018-08-30T15:30:54.075Z,6.77
2018-08-30T15:33:22.214Z,4.83
2018-08-30T15:35:50.385Z,7.17
2018-08-30T15:38:18.537Z,5.70
2018-08-30T15:40:46.709Z,7.43
2018-08-30T15:43:14.855Z,4.97
2018-08-30T15:45:43.030Z,6.90
2018-08-30T15:48:11.218Z,5.93
2018-08-30T15:50:39.375Z,9.17
2018-08-30T15:53:07.588Z,6.03
2018-08-30T15:55:35.693Z,6.50
2018-08-30T15:58:03.897Z,5.93
2018-08-30T16:00:32.078Z,8.13
2018-08-30T16:03:00.243Z,5.33
2018-08-30T16:05:28.710Z,6.07
2018-08-30T16:07:56.570Z,6.03
2018-08-30T16:10:24.766Z,7.63
2018-08-30T16:12:52.907Z,8.63
2018-08-30T16:15:21.018Z,6.97
2018-08-30T16:17:49.174Z,5.80
2018-08-30T16:20:18.003Z,5.37
2018-08-30T16:22:50.835Z,7.77
2018-08-30T16:25:19.146Z,6.83
2018-08-30T16:27:47.151Z,4.40
2018-08-30T16:30:15.294Z,7.50
2018-08-30T16:32:43.470Z,5.73
2018-08-30T16:35:11.628Z,5.73
2018-08-30T16:37:39.834Z,5.13
2018-08-30T16:40:07.949Z,6.23
2018-08-30T16:42:36.095Z,8.43
2018-08-30T16:45:04.250Z,7.43
2018-08-30T16:47:32.409Z,6.77
2018-08-30T16:50:00.565Z,5.90
2018-08-30T16:52:28.699Z,5.83
2018-08-30T16:54:56.809Z,4.30
2018-08-30T16:57:24.991Z,7.43
2018-08-30T16:59:53.133Z,6.23
2018-08-30T17:02:21.615Z,7.10
2018-08-30T17:04:49.547Z,6.57
2018-08-30T17:07:17.678Z,7.13
2018-08-30T17:09:45.986Z,7.07
2018-08-30T17:12:14.124Z,5.87
2018-08-30T17:14:42.217Z,5.77
2018-08-30T17:17:10.477Z,7.53
2018-08-30T17:19:39.342Z,6.97
2018-08-30T17:22:07.613Z,7.87
2018-08-30T17:24:35.750Z,3.80
2018-08-30T17:27:03.874Z,5.07
2018-08-30T17:29:32.001Z,4.07
2018-08-30T17:32:00.125Z,5.83
2018-08-30T17:34:28.226Z,7.07
2018-08-30T17:36:56.426Z,5.13
2018-08-30T17:39:24.513Z,7.97
2018-08-30T17:41:52.666Z,7.13
2018-08-30T17:44:20.810Z,5.87
2018-08-30T17:46:49.001Z,5.67
2018-08-30T17:49:17.301Z,6.47
2018-08-30T17:51:45.441Z,5.20
2018-08-30T17:54:13.567Z,6.17
2018-08-30T17:56:41.734Z,8.50
2018-08-30T17:59:09.882Z,6.20
2018-08-30T18:01:38.047Z,6.93
2018-08-30T18:04:06.162Z,5.70
2018-08-30T18:06:34.298Z,6.53
2018-08-30T18:09:02.477Z,6.50
2018-08-30T18:11:31.640Z,4.97
2018-08-30T18:13:59.741Z,4.17
2018-08-30T18:16:27.897Z,3.83
2018-08-30T18:18:56.028Z,5.50
2018-08-30T18:21:24.134Z,5.53
2018-08-30T18:23:52.270Z,6.50
2018-08-30T18:26:20.380Z,5.20
2018-08-30T18:28:48.522Z,6.53
2018-08-30T18:31:16.872Z,5.50
2018-08-30T18:33:44.973Z,4.70
2018-08-30T18:36:13.401Z,9.63
2018-08-30T18:38:41.551Z,5.90
2018-08-30T18:41:09.681Z,4.80
2018-08-30T18:43:37.822Z,3.13
2018-08-30T18:46:06.257Z,8.63
2018-08-30T18:48:34.370Z,5.50
2018-08-30T18:51:02.546Z,4.93
2018-08-30T18:53:30.687Z,6.33
2018-08-30T18:55:58.803Z,5.00
2018-08-30T18:58:26.929Z,10.57
2018-08-30T19:00:55.070Z,5.00
2018-08-30T19:03:23.199Z,5.53
2018-08-30T19:05:51.309Z,7.37
2018-08-30T19:08:19.473Z,6.23
2018-08-30T19:10:47.590Z,7.93
2018-08-30T19:13:15.739Z,6.30
2018-08-30T19:15:49.305Z,4.67
2018-08-30T19:18:22.937Z,6.60
2018-08-30T19:20:51.072Z,8.57
2018-08-30T19:23:19.221Z,7.77
2018-08-30T19:25:47.352Z,5.23
2018-08-30T19:28:15.483Z,7.00
2018-08-30T19:30:43.603Z,5.50
2018-08-30T19:33:11.745Z,7.13
2018-08-30T19:40:43.646Z,5.67
2018-08-30T19:43:11.814Z,6.30
2018-08-30T19:45:39.924Z,4.77
2018-08-30T19:48:08.064Z,4.57
2018-08-30T19:50:36.173Z,5.23
2018-08-30T19:53:04.338Z,8.13
2018-08-30T19:55:32.525Z,4.63
2018-08-30T19:58:00.665Z,4.83
2018-08-30T20:00:28.874Z,6.10
2018-08-30T20:02:57.016Z,5.83
2018-08-30T20:05:25.241Z,6.13
2018-08-30T20:07:53.381Z,5.40
2018-08-30T20:10:21.567Z,6.27
2018-08-30T20:12:49.737Z,9.63
2018-08-30T20:15:17.844Z,6.17
2018-08-30T20:17:46.594Z,8.93
2018-08-30T20:20:14.737Z,8.17
2018-08-30T20:22:42.871Z,4.73
2018-08-30T20:25:11.036Z,8.17
2018-08-30T20:27:39.181Z,5.40
2018-08-30T20:30:07.326Z,8.77
2018-08-30T20:32:35.546Z,7.80
2018-08-30T20:35:03.704Z,4.10
2018-08-30T20:37:31.822Z,8.13
2018-08-30T20:39:59.953Z,4.60
2018-08-30T20:42:28.122Z,6.07
2018-08-30T20:44:56.258Z,6.47
2018-08-30T20:47:24.378Z,3.87
2018-08-30T20:49:52.685Z,5.33
2018-08-30T20:52:20.833Z,6.70
2018-08-30T20:54:48.973Z,9.23
2018-08-30T20:57:17.138Z,6.93
2018-08-30T20:59:45.265Z,5.60
2018-08-30T21:02:13.560Z,6.37
2018-08-30T21:04:41.677Z,4.70
2018-08-30T21:07:09.795Z,5.17
2018-08-30T21:09:37.881Z,5.73
2018-08-30T21:12:08.077Z,7.37
2018-08-30T21:14:36.224Z,6.53
2018-08-30T21:17:04.333Z,6.77
2018-08-30T21:19:32.446Z,5.83
2018-08-30T21:22:00.658Z,6.43
2018-08-30T21:24:28.822Z,4.90
2018-08-30T21:26:56.945Z,6.83
2018-08-30T21:29:25.109Z,6.03
2018-08-30T21:31:53.322Z,6.43
2018-08-30T21:34:21.453Z,6.97
2018-08-30T21:36:49.658Z,5.47
2018-08-30T21:39:17.789Z,4.83
2018-08-30T21:41:45.955Z,6.20
2018-08-30T21:44:14.079Z,5.30
2018-08-30T21:46:42.224Z,6.63
2018-08-30T21:49:10.366Z,6.47
2018-08-30T21:51:38.490Z,7.23
2018-08-30T21:54:06.806Z,6.70
2018-08-30T21:56:34.929Z,7.77
2018-08-30T21:59:03.057Z,5.60
2018-08-30T22:01:31.194Z,6.60
2018-08-30T22:03:59.333Z,5.37
2018-08-30T22:06:27.452Z,6.13
2018-08-30T22:08:55.645Z,8.33
2018-08-30T22:11:23.748Z,6.97
2018-08-30T22:13:51.830Z,4.90
2018-08-30T22:16:19.985Z,5.87
2018-08-30T22:18:48.041Z,5.17
2018-08-30T22:21:16.164Z,4.63
2018-08-30T22:23:44.289Z,5.23
2018-08-30T22:26:12.693Z,7.27
2018-08-30T22:28:40.960Z,5.80
2018-08-30T22:31:09.125Z,6.37
2018-08-30T22:33:37.244Z,5.37
2018-08-30T22:36:05.512Z,5.87
2018-08-30T22:38:33.625Z,6.80
2018-08-30T22:41:01.765Z,9.00
2018-08-30T22:43:29.918Z,8.03
2018-08-30T22:45:58.048Z,6.60
2018-08-30T22:48:26.178Z,5.33
2018-08-30T22:50:54.326Z,6.97
2018-08-30T22:53:22.464Z,5.17
2018-08-30T22:55:50.613Z,5.57
2018-08-30T22:58:18.778Z,8.97
2018-08-30T23:00:46.934Z,4.20
2018-08-30T23:03:15.048Z,6.20
2018-08-30T23:05:43.296Z,7.27
2018-08-30T23:08:11.428Z,5.53
2018-08-30T23:10:39.582Z,6.00
2018-08-30T23:13:07.876Z,6.33
2018-08-30T23:15:36.010Z,7.77
2018-08-30T23:18:04.297Z,8.07
2018-08-30T23:20:32.425Z,7.30
2018-08-30T23:23:00.540Z,7.40
2018-08-30T23:25:28.661Z,8.70
2018-08-30T23:27:56.801Z,6.67
2018-08-30T23:30:25.056Z,6.93
2018-08-30T23:32:53.145Z,6.30
2018-08-30T23:35:21.237Z,5.20
2018-08-30T23:37:49.361Z,8.93
2018-08-30T23:40:17.528Z,5.87
2018-08-30T23:42:45.642Z,5.80
2018-08-30T23:45:13.785Z,5.03
2018-08-30T23:47:48.777Z,9.70
2018-08-30T23:50:16.894Z,9.83
2018-08-30T23:52:45.021Z,5.97
2018-08-30T23:55:13.153Z,5.10
2018-08-30T23:57:52.776Z,5.50
